sensor_id;sensor_type;location;lat;lon;timestamp;temperature;humidity
17495;DHT22;8864;51.970;4.614;2023-09-30T00:02:00;22.10;72.70
17495;DHT22;8864;51.970;4.614;2023-09-30T00:04:28;22.10;72.80
17495;DHT22;8864;51.970;4.614;2023-09-30T00:06:57;22.10;72.90
17495;DHT22;8864;51.970;4.614;2023-09-30T00:09:24;22.10;72.90
17495;DHT22;8864;51.970;4.614;2023-09-30T00:11:50;22.10;72.90
17495;DHT22;8864;51.970;4.614;2023-09-30T00:14:17;22.10;72.90
17495;DHT22;8864;51.970;4.614;2023-09-30T00:16:44;22.10;72.90
17495;DHT22;8864;51.970;4.614;2023-09-30T00:19:12;22.10;73.00
17495;DHT22;8864;51.970;4.614;2023-09-30T00:21:39;22.10;72.90
17495;DHT22;8864;51.970;4.614;2023-09-30T00:24:07;22.10;73.00
17495;DHT22;8864;51.970;4.614;2023-09-30T00:26:35;22.10;72.90
17495;DHT22;8864;51.970;4.614;2023-09-30T00:29:02;22.10;73.00
17495;DHT22;8864;51.970;4.614;2023-09-30T00:31:30;22.10;73.10
17495;DHT22;8864;51.970;4.614;2023-09-30T00:33:57;22.10;73.20
17495;DHT22;8864;51.970;4.614;2023-09-30T00:36:25;22.10;73.10
17495;DHT22;8864;51.970;4.614;2023-09-30T00:38:52;22.10;73.20
17495;DHT22;8864;51.970;4.614;2023-09-30T00:41:20;22.10;73.20
17495;DHT22;8864;51.970;4.614;2023-09-30T00:43:47;22.10;73.20
17495;DHT22;8864;51.970;4.614;2023-09-30T00:46:20;22.10;73.20
17495;DHT22;8864;51.970;4.614;2023-09-30T00:48:52;22.10;73.20
17495;DHT22;8864;51.970;4.614;2023-09-30T00:51:20;22.10;73.30
17495;DHT22;8864;51.970;4.614;2023-09-30T00:53:47;22.10;73.40
17495;DHT22;8864;51.970;4.614;2023-09-30T00:56:15;22.10;73.30
17495;DHT22;8864;51.970;4.614;2023-09-30T00:58:46;22.10;73.30
17495;DHT22;8864;51.970;4.614;2023-09-30T01:01:16;22.10;73.30
17495;DHT22;8864;51.970;4.614;2023-09-30T01:03:45;22.10;73.30
17495;DHT22;8864;51.970;4.614;2023-09-30T01:06:12;22.10;73.30
17495;DHT22;8864;51.970;4.614;2023-09-30T01:08:39;22.10;73.40
17495;DHT22;8864;51.970;4.614;2023-09-30T01:11:07;22.10;73.50
17495;DHT22;8864;51.970;4.614;2023-09-30T01:13:35;22.10;73.50
17495;DHT22;8864;51.970;4.614;2023-09-30T01:16:07;22.10;73.50
17495;DHT22;8864;51.970;4.614;2023-09-30T01:18:36;22.00;73.50
17495;DHT22;8864;51.970;4.614;2023-09-30T01:21:04;22.10;73.60
17495;DHT22;8864;51.970;4.614;2023-09-30T01:23:33;22.00;73.50
17495;DHT22;8864;51.970;4.614;2023-09-30T01:26:02;22.00;73.50
17495;DHT22;8864;51.970;4.614;2023-09-30T01:28:30;22.10;73.60
17495;DHT22;8864;51.970;4.614;2023-09-30T01:30:58;22.00;73.60
17495;DHT22;8864;51.970;4.614;2023-09-30T01:33:25;22.10;73.70
17495;DHT22;8864;51.970;4.614;2023-09-30T01:35:52;22.10;73.60
17495;DHT22;8864;51.970;4.614;2023-09-30T01:38:19;22.00;73.60
17495;DHT22;8864;51.970;4.614;2023-09-30T01:40:48;22.00;73.70
17495;DHT22;8864;51.970;4.614;2023-09-30T01:43:16;22.00;73.60
17495;DHT22;8864;51.970;4.614;2023-09-30T01:45:44;22.00;73.70
17495;DHT22;8864;51.970;4.614;2023-09-30T01:48:14;22.00;73.70
17495;DHT22;8864;51.970;4.614;2023-09-30T01:50:41;22.00;73.80
17495;DHT22;8864;51.970;4.614;2023-09-30T01:53:08;22.00;73.80
17495;DHT22;8864;51.970;4.614;2023-09-30T01:55:35;22.00;73.80
17495;DHT22;8864;51.970;4.614;2023-09-30T01:58:04;22.00;73.80
17495;DHT22;8864;51.970;4.614;2023-09-30T02:00:31;22.00;73.80
17495;DHT22;8864;51.970;4.614;2023-09-30T02:02:58;22.00;73.90
17495;DHT22;8864;51.970;4.614;2023-09-30T02:05:26;22.00;74.00
17495;DHT22;8864;51.970;4.614;2023-09-30T02:07:53;22.00;74.00
17495;DHT22;8864;51.970;4.614;2023-09-30T02:10:20;22.00;74.00
17495;DHT22;8864;51.970;4.614;2023-09-30T02:12:47;22.00;74.10
17495;DHT22;8864;51.970;4.614;2023-09-30T02:15:16;22.00;74.10
17495;DHT22;8864;51.970;4.614;2023-09-30T02:17:43;22.00;74.10
17495;DHT22;8864;51.970;4.614;2023-09-30T02:20:12;22.00;74.10
17495;DHT22;8864;51.970;4.614;2023-09-30T02:22:42;22.00;74.10
17495;DHT22;8864;51.970;4.614;2023-09-30T02:25:10;22.00;74.20
17495;DHT22;8864;51.970;4.614;2023-09-30T02:27:38;22.00;74.20
17495;DHT22;8864;51.970;4.614;2023-09-30T02:30:08;22.00;74.30
17495;DHT22;8864;51.970;4.614;2023-09-30T02:32:39;22.00;74.20
17495;DHT22;8864;51.970;4.614;2023-09-30T02:35:07;22.00;74.30
17495;DHT22;8864;51.970;4.614;2023-09-30T02:37:36;22.00;74.30
17495;DHT22;8864;51.970;4.614;2023-09-30T02:40:04;22.00;74.30
17495;DHT22;8864;51.970;4.614;2023-09-30T02:42:35;22.00;74.30
17495;DHT22;8864;51.970;4.614;2023-09-30T02:45:03;22.00;74.30
17495;DHT22;8864;51.970;4.614;2023-09-30T02:47:29;22.00;74.30
17495;DHT22;8864;51.970;4.614;2023-09-30T02:49:59;22.00;74.30
17495;DHT22;8864;51.970;4.614;2023-09-30T02:52:26;22.00;74.30
17495;DHT22;8864;51.970;4.614;2023-09-30T02:54:54;22.00;74.40
17495;DHT22;8864;51.970;4.614;2023-09-30T02:57:23;22.00;74.40
17495;DHT22;8864;51.970;4.614;2023-09-30T02:59:50;22.00;74.40
17495;DHT22;8864;51.970;4.614;2023-09-30T03:02:19;22.00;74.40
17495;DHT22;8864;51.970;4.614;2023-09-30T03:04:46;22.00;74.40
17495;DHT22;8864;51.970;4.614;2023-09-30T03:07:18;22.00;74.40
17495;DHT22;8864;51.970;4.614;2023-09-30T03:09:46;22.00;74.40
17495;DHT22;8864;51.970;4.614;2023-09-30T03:12:14;22.00;74.40
17495;DHT22;8864;51.970;4.614;2023-09-30T03:14:41;22.00;74.50
17495;DHT22;8864;51.970;4.614;2023-09-30T03:17:10;22.00;74.50
17495;DHT22;8864;51.970;4.614;2023-09-30T03:19:38;22.00;74.60
17495;DHT22;8864;51.970;4.614;2023-09-30T03:22:05;22.00;74.60
17495;DHT22;8864;51.970;4.614;2023-09-30T03:24:38;22.00;75.40
17495;DHT22;8864;51.970;4.614;2023-09-30T03:27:04;22.00;74.60
17495;DHT22;8864;51.970;4.614;2023-09-30T03:29:32;22.00;74.70
17495;DHT22;8864;51.970;4.614;2023-09-30T03:31:58;22.00;74.70
17495;DHT22;8864;51.970;4.614;2023-09-30T03:34:26;22.00;74.70
17495;DHT22;8864;51.970;4.614;2023-09-30T03:36:54;22.00;74.70
17495;DHT22;8864;51.970;4.614;2023-09-30T03:39:24;22.00;74.70
17495;DHT22;8864;51.970;4.614;2023-09-30T03:41:54;22.00;74.80
17495;DHT22;8864;51.970;4.614;2023-09-30T03:44:21;22.00;74.80
17495;DHT22;8864;51.970;4.614;2023-09-30T03:46:50;21.90;74.80
17495;DHT22;8864;51.970;4.614;2023-09-30T03:49:17;21.90;74.80
17495;DHT22;8864;51.970;4.614;2023-09-30T03:51:45;22.00;74.90
17495;DHT22;8864;51.970;4.614;2023-09-30T03:54:12;21.90;74.90
17495;DHT22;8864;51.970;4.614;2023-09-30T03:56:39;22.00;74.90
17495;DHT22;8864;51.970;4.614;2023-09-30T03:59:08;21.90;74.90
17495;DHT22;8864;51.970;4.614;2023-09-30T04:01:35;21.90;74.90
17495;DHT22;8864;51.970;4.614;2023-09-30T04:04:06;21.90;74.90
17495;DHT22;8864;51.970;4.614;2023-09-30T04:06:33;21.90;74.90
17495;DHT22;8864;51.970;4.614;2023-09-30T04:09:04;21.90;75.00
17495;DHT22;8864;51.970;4.614;2023-09-30T04:11:35;21.90;75.00
17495;DHT22;8864;51.970;4.614;2023-09-30T04:14:03;21.90;75.00
17495;DHT22;8864;51.970;4.614;2023-09-30T04:16:31;21.90;75.00
17495;DHT22;8864;51.970;4.614;2023-09-30T04:18:58;21.90;75.10
17495;DHT22;8864;51.970;4.614;2023-09-30T04:21:26;21.90;75.10
17495;DHT22;8864;51.970;4.614;2023-09-30T04:23:55;22.00;75.20
17495;DHT22;8864;51.970;4.614;2023-09-30T04:26:23;21.90;75.20
17495;DHT22;8864;51.970;4.614;2023-09-30T04:28:50;21.90;75.20
17495;DHT22;8864;51.970;4.614;2023-09-30T04:31:18;21.90;75.10
17495;DHT22;8864;51.970;4.614;2023-09-30T04:33:48;21.90;75.20
17495;DHT22;8864;51.970;4.614;2023-09-30T04:36:16;21.90;75.20
17495;DHT22;8864;51.970;4.614;2023-09-30T04:38:43;21.90;75.20
17495;DHT22;8864;51.970;4.614;2023-09-30T04:41:10;21.90;75.20
17495;DHT22;8864;51.970;4.614;2023-09-30T04:43:37;21.90;75.30
17495;DHT22;8864;51.970;4.614;2023-09-30T04:46:05;21.90;75.30
17495;DHT22;8864;51.970;4.614;2023-09-30T04:48:34;21.90;75.40
17495;DHT22;8864;51.970;4.614;2023-09-30T04:51:06;21.90;75.50
17495;DHT22;8864;51.970;4.614;2023-09-30T04:53:33;21.90;75.50
17495;DHT22;8864;51.970;4.614;2023-09-30T04:56:00;21.90;75.50
17495;DHT22;8864;51.970;4.614;2023-09-30T04:58:27;21.90;75.50
17495;DHT22;8864;51.970;4.614;2023-09-30T05:00:55;21.90;75.50
17495;DHT22;8864;51.970;4.614;2023-09-30T05:03:22;21.90;75.50
17495;DHT22;8864;51.970;4.614;2023-09-30T05:05:51;21.90;75.40
17495;DHT22;8864;51.970;4.614;2023-09-30T05:08:22;21.90;75.50
17495;DHT22;8864;51.970;4.614;2023-09-30T05:10:49;21.90;75.50
17495;DHT22;8864;51.970;4.614;2023-09-30T05:13:16;21.90;75.50
17495;DHT22;8864;51.970;4.614;2023-09-30T05:15:44;21.90;75.60
17495;DHT22;8864;51.970;4.614;2023-09-30T05:18:11;21.90;75.50
17495;DHT22;8864;51.970;4.614;2023-09-30T05:20:38;21.90;75.50
17495;DHT22;8864;51.970;4.614;2023-09-30T05:23:06;21.90;75.40
17495;DHT22;8864;51.970;4.614;2023-09-30T05:25:35;21.90;75.40
17495;DHT22;8864;51.970;4.614;2023-09-30T05:28:03;21.90;75.30
17495;DHT22;8864;51.970;4.614;2023-09-30T05:30:31;21.90;75.30
17495;DHT22;8864;51.970;4.614;2023-09-30T05:32:58;21.90;75.20
17495;DHT22;8864;51.970;4.614;2023-09-30T05:35:26;21.90;75.20
17495;DHT22;8864;51.970;4.614;2023-09-30T05:37:54;21.80;75.10
17495;DHT22;8864;51.970;4.614;2023-09-30T05:40:21;21.80;75.10
17495;DHT22;8864;51.970;4.614;2023-09-30T05:42:51;21.90;75.20
17495;DHT22;8864;51.970;4.614;2023-09-30T05:45:19;21.80;75.00
17495;DHT22;8864;51.970;4.614;2023-09-30T05:47:46;21.90;75.00
17495;DHT22;8864;51.970;4.614;2023-09-30T05:50:13;21.80;75.00
17495;DHT22;8864;51.970;4.614;2023-09-30T05:52:42;21.90;75.00
17495;DHT22;8864;51.970;4.614;2023-09-30T05:55:10;21.80;74.90
17495;DHT22;8864;51.970;4.614;2023-09-30T05:57:40;21.80;74.80
17495;DHT22;8864;51.970;4.614;2023-09-30T06:00:12;21.80;74.80
17495;DHT22;8864;51.970;4.614;2023-09-30T06:02:46;21.90;74.80
17495;DHT22;8864;51.970;4.614;2023-09-30T06:05:13;21.80;74.70
17495;DHT22;8864;51.970;4.614;2023-09-30T06:07:44;21.80;74.70
17495;DHT22;8864;51.970;4.614;2023-09-30T06:10:12;21.80;74.70
17495;DHT22;8864;51.970;4.614;2023-09-30T06:12:44;21.80;74.70
17495;DHT22;8864;51.970;4.614;2023-09-30T06:15:13;21.80;74.60
17495;DHT22;8864;51.970;4.614;2023-09-30T06:17:41;21.80;74.70
17495;DHT22;8864;51.970;4.614;2023-09-30T06:20:10;21.90;74.90
17495;DHT22;8864;51.970;4.614;2023-09-30T06:22:42;21.80;74.90
17495;DHT22;8864;51.970;4.614;2023-09-30T06:25:11;21.80;74.80
17495;DHT22;8864;51.970;4.614;2023-09-30T06:27:39;21.80;74.70
17495;DHT22;8864;51.970;4.614;2023-09-30T06:30:07;21.90;74.90
17495;DHT22;8864;51.970;4.614;2023-09-30T06:32:37;21.80;74.80
17495;DHT22;8864;51.970;4.614;2023-09-30T06:35:06;21.90;74.90
17495;DHT22;8864;51.970;4.614;2023-09-30T06:37:35;21.80;74.70
17495;DHT22;8864;51.970;4.614;2023-09-30T06:40:03;21.80;74.90
17495;DHT22;8864;51.970;4.614;2023-09-30T06:42:30;21.80;75.50
17495;DHT22;8864;51.970;4.614;2023-09-30T06:44:58;21.90;76.90
17495;DHT22;8864;51.970;4.614;2023-09-30T06:47:25;21.90;76.70
17495;DHT22;8864;51.970;4.614;2023-09-30T06:49:53;21.90;76.60
17495;DHT22;8864;51.970;4.614;2023-09-30T06:52:22;21.90;76.30
17495;DHT22;8864;51.970;4.614;2023-09-30T06:54:49;21.90;76.20
17495;DHT22;8864;51.970;4.614;2023-09-30T06:57:17;22.00;77.20
17495;DHT22;8864;51.970;4.614;2023-09-30T06:59:44;21.90;77.10
17495;DHT22;8864;51.970;4.614;2023-09-30T07:02:11;22.00;77.10
17495;DHT22;8864;51.970;4.614;2023-09-30T07:04:38;22.10;76.70
17495;DHT22;8864;51.970;4.614;2023-09-30T07:07:06;22.20;76.40
17495;DHT22;8864;51.970;4.614;2023-09-30T07:09:33;22.20;76.20
17495;DHT22;8864;51.970;4.614;2023-09-30T07:12:01;22.20;76.30
17495;DHT22;8864;51.970;4.614;2023-09-30T07:14:31;22.10;76.10
17495;DHT22;8864;51.970;4.614;2023-09-30T07:16:58;22.10;76.10
17495;DHT22;8864;51.970;4.614;2023-09-30T07:19:25;22.10;76.10
17495;DHT22;8864;51.970;4.614;2023-09-30T07:21:52;22.10;76.10
17495;DHT22;8864;51.970;4.614;2023-09-30T07:24:20;22.10;76.00
17495;DHT22;8864;51.970;4.614;2023-09-30T07:26:47;22.00;76.00
17495;DHT22;8864;51.970;4.614;2023-09-30T07:29:14;22.00;76.00
17495;DHT22;8864;51.970;4.614;2023-09-30T07:31:41;22.00;75.90
17495;DHT22;8864;51.970;4.614;2023-09-30T07:34:08;22.00;76.00
17495;DHT22;8864;51.970;4.614;2023-09-30T07:36:35;22.00;76.30
17495;DHT22;8864;51.970;4.614;2023-09-30T07:39:02;22.00;76.30
17495;DHT22;8864;51.970;4.614;2023-09-30T07:41:34;22.00;76.30
17495;DHT22;8864;51.970;4.614;2023-09-30T07:44:02;22.00;76.30
17495;DHT22;8864;51.970;4.614;2023-09-30T07:46:30;22.00;76.20
17495;DHT22;8864;51.970;4.614;2023-09-30T07:48:58;22.00;76.20
17495;DHT22;8864;51.970;4.614;2023-09-30T07:51:26;22.00;76.10
17495;DHT22;8864;51.970;4.614;2023-09-30T07:53:52;22.00;76.10
17495;DHT22;8864;51.970;4.614;2023-09-30T07:56:19;22.00;76.10
17495;DHT22;8864;51.970;4.614;2023-09-30T07:58:48;22.00;76.00
17495;DHT22;8864;51.970;4.614;2023-09-30T08:01:15;22.00;76.00
17495;DHT22;8864;51.970;4.614;2023-09-30T08:03:43;22.00;76.00
17495;DHT22;8864;51.970;4.614;2023-09-30T08:06:10;22.00;76.00
17495;DHT22;8864;51.970;4.614;2023-09-30T08:08:37;22.00;76.00
17495;DHT22;8864;51.970;4.614;2023-09-30T08:11:05;22.00;76.00
17495;DHT22;8864;51.970;4.614;2023-09-30T08:13:32;22.00;76.00
17495;DHT22;8864;51.970;4.614;2023-09-30T08:16:00;22.00;76.00
17495;DHT22;8864;51.970;4.614;2023-09-30T08:18:27;22.00;76.00
17495;DHT22;8864;51.970;4.614;2023-09-30T08:20:54;22.00;76.00
17495;DHT22;8864;51.970;4.614;2023-09-30T08:23:23;22.00;76.00
17495;DHT22;8864;51.970;4.614;2023-09-30T08:25:50;22.00;76.00
17495;DHT22;8864;51.970;4.614;2023-09-30T08:28:18;22.00;76.00
17495;DHT22;8864;51.970;4.614;2023-09-30T08:30:44;22.00;76.00
17495;DHT22;8864;51.970;4.614;2023-09-30T08:33:16;22.00;76.00
17495;DHT22;8864;51.970;4.614;2023-09-30T08:35:43;22.00;76.00
17495;DHT22;8864;51.970;4.614;2023-09-30T08:38:10;22.00;76.10
17495;DHT22;8864;51.970;4.614;2023-09-30T08:40:38;22.00;76.10
17495;DHT22;8864;51.970;4.614;2023-09-30T08:43:10;22.00;76.10
17495;DHT22;8864;51.970;4.614;2023-09-30T08:45:39;22.00;76.10
17495;DHT22;8864;51.970;4.614;2023-09-30T08:48:10;22.00;76.10
17495;DHT22;8864;51.970;4.614;2023-09-30T08:50:39;22.00;76.10
17495;DHT22;8864;51.970;4.614;2023-09-30T08:53:11;22.10;76.30
17495;DHT22;8864;51.970;4.614;2023-09-30T08:55:40;22.00;76.20
17495;DHT22;8864;51.970;4.614;2023-09-30T08:58:08;22.10;76.30
17495;DHT22;8864;51.970;4.614;2023-09-30T09:00:35;22.10;76.30
17495;DHT22;8864;51.970;4.614;2023-09-30T09:03:04;22.10;76.20
17495;DHT22;8864;51.970;4.614;2023-09-30T09:05:31;22.10;76.30
17495;DHT22;8864;51.970;4.614;2023-09-30T09:08:00;22.10;76.30
17495;DHT22;8864;51.970;4.614;2023-09-30T09:10:28;22.10;76.30
17495;DHT22;8864;51.970;4.614;2023-09-30T09:12:56;22.10;76.30
17495;DHT22;8864;51.970;4.614;2023-09-30T09:15:24;22.10;76.20
17495;DHT22;8864;51.970;4.614;2023-09-30T09:17:51;22.10;76.20
17495;DHT22;8864;51.970;4.614;2023-09-30T09:20:20;22.10;76.20
17495;DHT22;8864;51.970;4.614;2023-09-30T09:22:49;22.10;76.20
17495;DHT22;8864;51.970;4.614;2023-09-30T09:25:20;22.10;76.30
17495;DHT22;8864;51.970;4.614;2023-09-30T09:27:48;22.10;76.30
17495;DHT22;8864;51.970;4.614;2023-09-30T09:30:20;22.10;76.30
17495;DHT22;8864;51.970;4.614;2023-09-30T09:33:08;22.10;76.30
17495;DHT22;8864;51.970;4.614;2023-09-30T09:35:38;22.10;76.20
17495;DHT22;8864;51.970;4.614;2023-09-30T09:38:05;22.10;76.30
17495;DHT22;8864;51.970;4.614;2023-09-30T09:40:35;22.10;76.20
17495;DHT22;8864;51.970;4.614;2023-09-30T09:43:04;22.10;76.30
17495;DHT22;8864;51.970;4.614;2023-09-30T09:45:36;22.10;76.20
17495;DHT22;8864;51.970;4.614;2023-09-30T09:48:04;22.10;76.30
17495;DHT22;8864;51.970;4.614;2023-09-30T09:50:32;22.10;76.20
17495;DHT22;8864;51.970;4.614;2023-09-30T09:53:02;22.10;76.20
17495;DHT22;8864;51.970;4.614;2023-09-30T09:55:31;22.10;76.30
17495;DHT22;8864;51.970;4.614;2023-09-30T09:58:02;22.10;76.20
17495;DHT22;8864;51.970;4.614;2023-09-30T10:00:30;22.10;76.30
17495;DHT22;8864;51.970;4.614;2023-09-30T10:02:58;22.10;76.30
17495;DHT22;8864;51.970;4.614;2023-09-30T10:05:25;22.10;76.40
17495;DHT22;8864;51.970;4.614;2023-09-30T10:07:55;22.10;76.40
17495;DHT22;8864;51.970;4.614;2023-09-30T10:10:23;22.10;76.30
17495;DHT22;8864;51.970;4.614;2023-09-30T10:12:51;22.20;76.40
17495;DHT22;8864;51.970;4.614;2023-09-30T10:15:43;22.20;76.40
17495;DHT22;8864;51.970;4.614;2023-09-30T10:18:11;22.20;76.20
17495;DHT22;8864;51.970;4.614;2023-09-30T10:20:40;22.20;76.20
17495;DHT22;8864;51.970;4.614;2023-09-30T10:23:24;22.20;76.30
17495;DHT22;8864;51.970;4.614;2023-09-30T10:25:54;22.20;76.10
17495;DHT22;8864;51.970;4.614;2023-09-30T10:28:37;22.20;76.30
17495;DHT22;8864;51.970;4.614;2023-09-30T10:31:13;22.20;76.30
17495;DHT22;8864;51.970;4.614;2023-09-30T10:34:19;22.20;76.30
17495;DHT22;8864;51.970;4.614;2023-09-30T10:36:47;22.20;76.10
17495;DHT22;8864;51.970;4.614;2023-09-30T10:39:52;22.20;76.00
17495;DHT22;8864;51.970;4.614;2023-09-30T10:42:44;22.20;76.00
17495;DHT22;8864;51.970;4.614;2023-09-30T10:48:36;22.20;75.60
17495;DHT22;8864;51.970;4.614;2023-09-30T10:51:16;22.20;75.50
17495;DHT22;8864;51.970;4.614;2023-09-30T10:53:48;22.20;75.60
17495;DHT22;8864;51.970;4.614;2023-09-30T10:56:16;22.20;75.60
17495;DHT22;8864;51.970;4.614;2023-09-30T10:58:43;22.20;75.50
17495;DHT22;8864;51.970;4.614;2023-09-30T11:01:12;22.20;75.60
17495;DHT22;8864;51.970;4.614;2023-09-30T11:03:41;22.20;75.50
17495;DHT22;8864;51.970;4.614;2023-09-30T11:06:12;22.20;75.30
17495;DHT22;8864;51.970;4.614;2023-09-30T11:08:46;22.20;75.00
17495;DHT22;8864;51.970;4.614;2023-09-30T11:11:13;22.30;74.80
17495;DHT22;8864;51.970;4.614;2023-09-30T11:13:43;22.30;74.70
17495;DHT22;8864;51.970;4.614;2023-09-30T11:16:10;22.30;74.90
17495;DHT22;8864;51.970;4.614;2023-09-30T11:18:37;22.30;74.90
17495;DHT22;8864;51.970;4.614;2023-09-30T11:21:11;22.30;75.90
17495;DHT22;8864;51.970;4.614;2023-09-30T11:23:40;22.30;75.00
17495;DHT22;8864;51.970;4.614;2023-09-30T11:26:07;22.30;74.80
17495;DHT22;8864;51.970;4.614;2023-09-30T11:28:39;22.30;74.70
17495;DHT22;8864;51.970;4.614;2023-09-30T11:31:11;22.40;74.70
17495;DHT22;8864;51.970;4.614;2023-09-30T11:33:50;22.40;74.50
17495;DHT22;8864;51.970;4.614;2023-09-30T11:36:20;22.40;74.30
17495;DHT22;8864;51.970;4.614;2023-09-30T11:38:49;22.40;74.40
17495;DHT22;8864;51.970;4.614;2023-09-30T11:41:17;22.40;74.20
17495;DHT22;8864;51.970;4.614;2023-09-30T11:44:01;22.40;73.20
17495;DHT22;8864;51.970;4.614;2023-09-30T11:46:30;22.40;73.10
17495;DHT22;8864;51.970;4.614;2023-09-30T11:49:00;22.40;73.10
17495;DHT22;8864;51.970;4.614;2023-09-30T11:51:29;22.40;72.30
17495;DHT22;8864;51.970;4.614;2023-09-30T11:54:00;22.40;72.30
17495;DHT22;8864;51.970;4.614;2023-09-30T11:56:27;22.50;72.40
17495;DHT22;8864;51.970;4.614;2023-09-30T11:58:55;22.50;72.60
17495;DHT22;8864;51.970;4.614;2023-09-30T12:01:24;22.50;72.70
17495;DHT22;8864;51.970;4.614;2023-09-30T12:03:52;22.50;72.90
17495;DHT22;8864;51.970;4.614;2023-09-30T12:06:22;22.50;72.90
17495;DHT22;8864;51.970;4.614;2023-09-30T12:08:51;22.60;73.00
17495;DHT22;8864;51.970;4.614;2023-09-30T12:11:18;22.60;73.00
17495;DHT22;8864;51.970;4.614;2023-09-30T12:13:45;22.60;72.80
17495;DHT22;8864;51.970;4.614;2023-09-30T12:16:14;22.60;72.70
17495;DHT22;8864;51.970;4.614;2023-09-30T12:18:42;22.60;72.60
17495;DHT22;8864;51.970;4.614;2023-09-30T12:21:09;22.60;72.70
17495;DHT22;8864;51.970;4.614;2023-09-30T12:23:36;22.60;72.70
17495;DHT22;8864;51.970;4.614;2023-09-30T12:26:05;22.60;72.70
17495;DHT22;8864;51.970;4.614;2023-09-30T12:28:33;22.60;72.70
17495;DHT22;8864;51.970;4.614;2023-09-30T12:31:01;22.70;72.70
17495;DHT22;8864;51.970;4.614;2023-09-30T12:33:30;22.70;72.80
17495;DHT22;8864;51.970;4.614;2023-09-30T12:35:58;22.70;72.90
17495;DHT22;8864;51.970;4.614;2023-09-30T12:38:25;22.70;72.80
17495;DHT22;8864;51.970;4.614;2023-09-30T12:40:53;22.70;72.50
17495;DHT22;8864;51.970;4.614;2023-09-30T12:43:22;22.70;72.40
17495;DHT22;8864;51.970;4.614;2023-09-30T12:45:49;22.70;72.30
17495;DHT22;8864;51.970;4.614;2023-09-30T12:48:16;22.70;72.10
17495;DHT22;8864;51.970;4.614;2023-09-30T12:50:43;22.70;72.10
17495;DHT22;8864;51.970;4.614;2023-09-30T12:53:10;22.70;72.20
17495;DHT22;8864;51.970;4.614;2023-09-30T12:55:38;22.70;72.10
17495;DHT22;8864;51.970;4.614;2023-09-30T12:58:05;22.70;72.30
17495;DHT22;8864;51.970;4.614;2023-09-30T13:00:33;22.70;72.50
17495;DHT22;8864;51.970;4.614;2023-09-30T13:03:02;22.70;72.30
17495;DHT22;8864;51.970;4.614;2023-09-30T13:05:29;22.70;72.20
17495;DHT22;8864;51.970;4.614;2023-09-30T13:07:56;22.70;72.00
17495;DHT22;8864;51.970;4.614;2023-09-30T13:10:23;22.70;72.00
17495;DHT22;8864;51.970;4.614;2023-09-30T13:12:51;22.70;72.00
17495;DHT22;8864;51.970;4.614;2023-09-30T13:15:19;22.70;72.00
17495;DHT22;8864;51.970;4.614;2023-09-30T13:17:48;22.70;72.00
17495;DHT22;8864;51.970;4.614;2023-09-30T13:20:15;22.70;72.50
17495;DHT22;8864;51.970;4.614;2023-09-30T13:22:43;22.70;72.40
17495;DHT22;8864;51.970;4.614;2023-09-30T13:25:11;22.70;72.50
17495;DHT22;8864;51.970;4.614;2023-09-30T13:27:38;22.80;72.40
17495;DHT22;8864;51.970;4.614;2023-09-30T13:30:07;22.80;72.10
17495;DHT22;8864;51.970;4.614;2023-09-30T13:32:34;22.80;72.20
17495;DHT22;8864;51.970;4.614;2023-09-30T13:35:04;22.80;72.30
17495;DHT22;8864;51.970;4.614;2023-09-30T13:37:32;22.80;72.30
17495;DHT22;8864;51.970;4.614;2023-09-30T13:40:03;22.80;72.30
17495;DHT22;8864;51.970;4.614;2023-09-30T13:42:33;22.80;72.30
17495;DHT22;8864;51.970;4.614;2023-09-30T13:45:01;22.80;72.30
17495;DHT22;8864;51.970;4.614;2023-09-30T13:47:29;22.80;72.40
17495;DHT22;8864;51.970;4.614;2023-09-30T13:49:55;22.80;72.40
17495;DHT22;8864;51.970;4.614;2023-09-30T13:52:24;22.80;72.60
17495;DHT22;8864;51.970;4.614;2023-09-30T13:54:51;22.90;72.60
17495;DHT22;8864;51.970;4.614;2023-09-30T13:57:18;22.80;72.30
17495;DHT22;8864;51.970;4.614;2023-09-30T13:59:45;22.80;72.30
17495;DHT22;8864;51.970;4.614;2023-09-30T14:02:12;22.80;72.00
17495;DHT22;8864;51.970;4.614;2023-09-30T14:04:39;22.80;72.00
17495;DHT22;8864;51.970;4.614;2023-09-30T14:07:06;22.90;72.40
17495;DHT22;8864;51.970;4.614;2023-09-30T14:09:35;22.90;72.20
17495;DHT22;8864;51.970;4.614;2023-09-30T14:12:03;22.90;72.10
17495;DHT22;8864;51.970;4.614;2023-09-30T14:14:31;22.90;71.70
17495;DHT22;8864;51.970;4.614;2023-09-30T14:16:59;22.90;71.70
17495;DHT22;8864;51.970;4.614;2023-09-30T14:19:32;23.00;71.70
17495;DHT22;8864;51.970;4.614;2023-09-30T14:21:59;23.00;71.80
17495;DHT22;8864;51.970;4.614;2023-09-30T14:24:27;23.00;71.80
17495;DHT22;8864;51.970;4.614;2023-09-30T14:26:56;23.00;71.80
17495;DHT22;8864;51.970;4.614;2023-09-30T14:29:23;23.00;71.80
17495;DHT22;8864;51.970;4.614;2023-09-30T14:31:51;23.00;71.90
17495;DHT22;8864;51.970;4.614;2023-09-30T14:34:18;23.00;72.00
17495;DHT22;8864;51.970;4.614;2023-09-30T14:36:45;23.00;72.00
17495;DHT22;8864;51.970;4.614;2023-09-30T14:39:13;23.00;72.00
17495;DHT22;8864;51.970;4.614;2023-09-30T14:41:41;23.00;72.00
17495;DHT22;8864;51.970;4.614;2023-09-30T14:44:09;23.00;71.90
17495;DHT22;8864;51.970;4.614;2023-09-30T14:46:37;23.00;71.90
17495;DHT22;8864;51.970;4.614;2023-09-30T14:49:04;23.00;71.90
17495;DHT22;8864;51.970;4.614;2023-09-30T14:51:32;23.00;71.90
17495;DHT22;8864;51.970;4.614;2023-09-30T14:53:59;23.10;72.00
17495;DHT22;8864;51.970;4.614;2023-09-30T14:56:27;23.00;72.00
17495;DHT22;8864;51.970;4.614;2023-09-30T14:58:54;23.00;72.20
17495;DHT22;8864;51.970;4.614;2023-09-30T15:01:23;23.10;72.30
17495;DHT22;8864;51.970;4.614;2023-09-30T15:03:51;23.10;72.30
17495;DHT22;8864;51.970;4.614;2023-09-30T15:06:18;23.10;72.30
17495;DHT22;8864;51.970;4.614;2023-09-30T15:08:46;23.00;72.30
17495;DHT22;8864;51.970;4.614;2023-09-30T15:11:14;23.00;72.10
17495;DHT22;8864;51.970;4.614;2023-09-30T15:13:41;23.10;72.10
17495;DHT22;8864;51.970;4.614;2023-09-30T15:16:22;23.00;72.00
17495;DHT22;8864;51.970;4.614;2023-09-30T15:18:50;23.00;72.10
17495;DHT22;8864;51.970;4.614;2023-09-30T15:21:18;23.00;72.00
17495;DHT22;8864;51.970;4.614;2023-09-30T15:23:45;23.00;71.90
17495;DHT22;8864;51.970;4.614;2023-09-30T15:26:12;23.00;71.80
17495;DHT22;8864;51.970;4.614;2023-09-30T15:28:41;23.00;71.70
17495;DHT22;8864;51.970;4.614;2023-09-30T15:31:10;23.00;71.60
17495;DHT22;8864;51.970;4.614;2023-09-30T15:33:38;23.00;71.60
17495;DHT22;8864;51.970;4.614;2023-09-30T15:36:09;23.00;71.60
17495;DHT22;8864;51.970;4.614;2023-09-30T15:38:36;23.10;71.90
17495;DHT22;8864;51.970;4.614;2023-09-30T15:41:04;23.10;72.00
17495;DHT22;8864;51.970;4.614;2023-09-30T15:43:33;23.10;72.00
17495;DHT22;8864;51.970;4.614;2023-09-30T15:46:01;23.10;72.00
17495;DHT22;8864;51.970;4.614;2023-09-30T15:48:28;23.10;72.00
17495;DHT22;8864;51.970;4.614;2023-09-30T15:50:57;23.00;72.30
17495;DHT22;8864;51.970;4.614;2023-09-30T15:53:25;23.00;72.00
17495;DHT22;8864;51.970;4.614;2023-09-30T15:55:53;23.10;72.00
17495;DHT22;8864;51.970;4.614;2023-09-30T15:58:20;23.00;71.90